sensor_id;sensor_type;location;lat;lon;timestamp;pressure;altitude;pressure_sealevel;temperature;humidity
77192;BME280;66172;48.526;8.078;2023-11-21T00:01:10;99070.66;;;8.69;100.00
77192;BME280;66172;48.526;8.078;2023-11-21T00:03:36;99064.44;;;8.68;100.00
77192;BME280;66172;48.526;8.078;2023-11-21T00:06:02;99074.00;;;8.66;100.00
77192;BME280;66172;48.526;8.078;2023-11-21T00:08:28;99065.88;;;8.66;100.00
77192;BME280;66172;48.526;8.078;2023-11-21T00:10:54;99066.97;;;8.85;100.00
77192;BME280;66172;48.526;8.078;2023-11-21T00:13:20;99061.97;;;8.75;100.00
77192;BME280;66172;48.526;8.078;2023-11-21T00:15:46;99062.84;;;8.67;100.00
77192;BME280;66172;48.526;8.078;2023-11-21T00:18:12;99062.09;;;8.79;100.00
77192;BME280;66172;48.526;8.078;2023-11-21T00:20:39;99061.63;;;8.77;100.00
77192;BME280;66172;48.526;8.078;2023-11-21T00:23:05;99060.94;;;8.80;100.00
77192;BME280;66172;48.526;8.078;2023-11-21T00:25:31;99059.50;;;8.82;100.00
77192;BME280;66172;48.526;8.078;2023-11-21T00:27:57;99068.78;;;8.93;100.00
77192;BME280;66172;48.526;8.078;2023-11-21T00:30:23;99066.66;;;8.99;100.00
77192;BME280;66172;48.526;8.078;2023-11-21T00:32:49;99068.13;;;8.96;100.00
77192;BME280;66172;48.526;8.078;2023-11-21T00:35:14;99072.16;;;8.90;100.00
77192;BME280;66172;48.526;8.078;2023-11-21T00:37:41;99064.81;;;8.79;100.00
77192;BME280;66172;48.526;8.078;2023-11-21T00:40:08;99061.06;;;8.71;100.00
77192;BME280;66172;48.526;8.078;2023-11-21T00:42:34;99069.63;;;8.73;100.00
77192;BME280;66172;48.526;8.078;2023-11-21T00:45:00;99067.16;;;8.80;100.00
77192;BME280;66172;48.526;8.078;2023-11-21T00:47:26;99076.66;;;8.74;100.00
77192;BME280;66172;48.526;8.078;2023-11-21T00:49:52;99064.94;;;8.94;99.05
77192;BME280;66172;48.526;8.078;2023-11-21T00:52:18;99072.97;;;9.03;98.34
77192;BME280;66172;48.526;8.078;2023-11-21T00:54:44;99069.81;;;9.01;97.49
77192;BME280;66172;48.526;8.078;2023-11-21T00:57:10;99062.56;;;8.93;96.52
77192;BME280;66172;48.526;8.078;2023-11-21T00:59:37;99057.47;;;8.91;96.51
77192;BME280;66172;48.526;8.078;2023-11-21T01:02:03;99068.00;;;8.93;97.28
77192;BME280;66172;48.526;8.078;2023-11-21T01:04:30;99059.31;;;8.99;98.44
77192;BME280;66172;48.526;8.078;2023-11-21T01:06:58;99069.91;;;8.92;99.42
77192;BME280;66172;48.526;8.078;2023-11-21T01:09:23;99063.47;;;8.85;100.00
77192;BME280;66172;48.526;8.078;2023-11-21T01:11:49;99058.47;;;8.75;100.00
77192;BME280;66172;48.526;8.078;2023-11-21T01:14:15;99070.00;;;8.72;100.00
77192;BME280;66172;48.526;8.078;2023-11-21T01:16:43;99067.63;;;8.82;100.00
77192;BME280;66172;48.526;8.078;2023-11-21T01:19:09;99077.44;;;8.75;100.00
77192;BME280;66172;48.526;8.078;2023-11-21T01:21:35;99076.59;;;8.62;100.00
77192;BME280;66172;48.526;8.078;2023-11-21T01:24:00;99071.53;;;8.61;100.00
77192;BME280;66172;48.526;8.078;2023-11-21T01:26:26;99067.22;;;8.60;100.00
77192;BME280;66172;48.526;8.078;2023-11-21T01:28:52;99072.66;;;8.60;100.00
77192;BME280;66172;48.526;8.078;2023-11-21T01:31:18;99066.00;;;8.57;100.00
77192;BME280;66172;48.526;8.078;2023-11-21T01:33:45;99061.63;;;8.65;100.00
77192;BME280;66172;48.526;8.078;2023-11-21T01:36:10;99066.16;;;8.85;100.00
77192;BME280;66172;48.526;8.078;2023-11-21T01:38:36;99069.50;;;8.70;100.00
77192;BME280;66172;48.526;8.078;2023-11-21T01:41:02;99063.41;;;8.73;100.00
77192;BME280;66172;48.526;8.078;2023-11-21T01:43:28;99057.22;;;8.72;100.00
77192;BME280;66172;48.526;8.078;2023-11-21T01:45:55;99061.63;;;8.77;100.00
77192;BME280;66172;48.526;8.078;2023-11-21T01:48:25;99063.38;;;8.93;100.00
77192;BME280;66172;48.526;8.078;2023-11-21T01:50:51;99065.00;;;8.74;100.00
77192;BME280;66172;48.526;8.078;2023-11-21T01:53:17;99069.28;;;8.63;100.00
77192;BME280;66172;48.526;8.078;2023-11-21T01:55:45;99062.16;;;8.58;100.00
77192;BME280;66172;48.526;8.078;2023-11-21T01:58:11;99065.19;;;8.57;100.00
77192;BME280;66172;48.526;8.078;2023-11-21T02:00:38;99057.63;;;8.62;100.00
77192;BME280;66172;48.526;8.078;2023-11-21T02:03:04;99058.91;;;8.65;100.00
77192;BME280;66172;48.526;8.078;2023-11-21T02:05:30;99058.78;;;8.61;100.00
77192;BME280;66172;48.526;8.078;2023-11-21T02:07:56;99064.53;;;8.60;100.00
77192;BME280;66172;48.526;8.078;2023-11-21T02:10:22;99071.19;;;8.62;100.00
77192;BME280;66172;48.526;8.078;2023-11-21T02:12:49;99074.00;;;8.66;100.00
77192;BME280;66172;48.526;8.078;2023-11-21T02:15:18;99073.13;;;8.62;100.00
77192;BME280;66172;48.526;8.078;2023-11-21T02:17:50;99067.81;;;8.65;100.00
77192;BME280;66172;48.526;8.078;2023-11-21T02:20:17;99072.03;;;8.75;100.00
77192;BME280;66172;48.526;8.078;2023-11-21T02:22:53;99059.59;;;8.74;100.00
77192;BME280;66172;48.526;8.078;2023-11-21T02:25:27;99060.34;;;8.62;100.00
77192;BME280;66172;48.526;8.078;2023-11-21T02:27:56;99065.34;;;8.72;100.00
77192;BME280;66172;48.526;8.078;2023-11-21T02:30:23;99058.47;;;8.75;100.00
77192;BME280;66172;48.526;8.078;2023-11-21T02:32:51;99058.72;;;8.82;100.00
77192;BME280;66172;48.526;8.078;2023-11-21T02:35:20;99055.44;;;8.88;100.00
77192;BME280;66172;48.526;8.078;2023-11-21T02:37:47;99054.28;;;8.77;100.00
77192;BME280;66172;48.526;8.078;2023-11-21T02:40:13;99046.38;;;8.72;100.00
77192;BME280;66172;48.526;8.078;2023-11-21T02:42:49;99044.69;;;8.80;100.00
77192;BME280;66172;48.526;8.078;2023-11-21T02:45:19;99044.13;;;8.74;100.00
77192;BME280;66172;48.526;8.078;2023-11-21T02:47:47;99053.84;;;8.87;100.00
77192;BME280;66172;48.526;8.078;2023-11-21T02:50:13;99046.19;;;8.89;100.00
77192;BME280;66172;48.526;8.078;2023-11-21T02:52:39;99045.47;;;8.80;100.00
77192;BME280;66172;48.526;8.078;2023-11-21T02:55:08;99041.22;;;8.91;100.00
77192;BME280;66172;48.526;8.078;2023-11-21T02:57:34;99048.53;;;8.79;100.00
77192;BME280;66172;48.526;8.078;2023-11-21T02:59:59;99061.66;;;8.89;100.00
77192;BME280;66172;48.526;8.078;2023-11-21T03:02:25;99054.22;;;8.86;100.00
77192;BME280;66172;48.526;8.078;2023-11-21T03:04:51;99054.44;;;8.93;100.00
77192;BME280;66172;48.526;8.078;2023-11-21T03:07:17;99051.25;;;8.91;100.00
77192;BME280;66172;48.526;8.078;2023-11-21T03:09:45;99045.94;;;8.94;100.00
77192;BME280;66172;48.526;8.078;2023-11-21T03:12:11;99054.75;;;8.91;98.95
77192;BME280;66172;48.526;8.078;2023-11-21T03:14:41;99052.16;;;8.95;99.80
77192;BME280;66172;48.526;8.078;2023-11-21T03:17:07;99056.34;;;9.04;97.45
77192;BME280;66172;48.526;8.078;2023-11-21T03:19:32;99059.63;;;8.98;98.27
77192;BME280;66172;48.526;8.078;2023-11-21T03:21:58;99053.88;;;8.99;99.14
77192;BME280;66172;48.526;8.078;2023-11-21T03:24:25;99058.41;;;8.95;100.00
77192;BME280;66172;48.526;8.078;2023-11-21T03:26:52;99062.34;;;8.98;100.00
77192;BME280;66172;48.526;8.078;2023-11-21T03:29:18;99053.75;;;8.96;100.00
77192;BME280;66172;48.526;8.078;2023-11-21T03:31:44;99061.91;;;8.96;100.00
77192;BME280;66172;48.526;8.078;2023-11-21T03:34:15;99062.34;;;8.98;100.00
77192;BME280;66172;48.526;8.078;2023-11-21T03:36:41;99063.63;;;9.00;100.00
77192;BME280;66172;48.526;8.078;2023-11-21T03:39:07;99060.78;;;8.97;100.00
77192;BME280;66172;48.526;8.078;2023-11-21T03:41:33;99066.66;;;8.99;100.00
77192;BME280;66172;48.526;8.078;2023-11-21T03:43:59;99076.50;;;9.03;100.00
77192;BME280;66172;48.526;8.078;2023-11-21T03:46:25;99077.63;;;9.02;100.00
77192;BME280;66172;48.526;8.078;2023-11-21T03:48:51;99074.56;;;9.04;100.00
77192;BME280;66172;48.526;8.078;2023-11-21T03:51:17;99080.56;;;9.10;100.00
77192;BME280;66172;48.526;8.078;2023-11-21T03:53:43;99077.81;;;8.97;99.80
77192;BME280;66172;48.526;8.078;2023-11-21T03:56:09;99079.53;;;8.90;99.05
77192;BME280;66172;48.526;8.078;2023-11-21T03:58:35;99084.03;;;8.86;99.47
77192;BME280;66172;48.526;8.078;2023-11-21T04:01:01;99078.16;;;8.96;99.68
77192;BME280;66172;48.526;8.078;2023-11-21T04:03:27;99081.78;;;9.00;100.00
77192;BME280;66172;48.526;8.078;2023-11-21T04:05:53;99083.91;;;8.94;100.00
77192;BME280;66172;48.526;8.078;2023-11-21T04:08:19;99080.75;;;8.92;100.00
77192;BME280;66172;48.526;8.078;2023-11-21T04:10:45;99086.53;;;9.03;100.00
77192;BME280;66172;48.526;8.078;2023-11-21T04:13:10;99087.09;;;8.96;100.00
77192;BME280;66172;48.526;8.078;2023-11-21T04:15:36;99088.66;;;8.85;100.00
77192;BME280;66172;48.526;8.078;2023-11-21T04:18:02;99086.75;;;8.98;100.00
77192;BME280;66172;48.526;8.078;2023-11-21T04:20:28;99092.66;;;9.00;100.00
77192;BME280;66172;48.526;8.078;2023-11-21T04:22:54;99092.75;;;9.03;100.00
77192;BME280;66172;48.526;8.078;2023-11-21T04:25:20;99096.59;;;9.02;98.31
77192;BME280;66172;48.526;8.078;2023-11-21T04:27:46;99096.59;;;9.02;97.81
77192;BME280;66172;48.526;8.078;2023-11-21T04:30:13;99098.38;;;8.98;99.32
77192;BME280;66172;48.526;8.078;2023-11-21T04:32:39;99096.16;;;9.00;98.71
77192;BME280;66172;48.526;8.078;2023-11-21T04:35:05;99096.59;;;9.02;98.92
77192;BME280;66172;48.526;8.078;2023-11-21T04:37:31;99098.19;;;9.03;99.22
77192;BME280;66172;48.526;8.078;2023-11-21T04:39:57;99101.47;;;8.97;97.75
77192;BME280;66172;48.526;8.078;2023-11-21T04:42:23;99106.28;;;8.91;97.92
77192;BME280;66172;48.526;8.078;2023-11-21T04:44:49;99108.31;;;8.94;95.88
77192;BME280;66172;48.526;8.078;2023-11-21T04:47:15;99110.47;;;9.01;96.34
77192;BME280;66172;48.526;8.078;2023-11-21T04:49:46;99105.53;;;9.03;96.93
77192;BME280;66172;48.526;8.078;2023-11-21T04:52:12;99109.16;;;9.07;96.25
77192;BME280;66172;48.526;8.078;2023-11-21T04:54:38;99106.22;;;9.12;95.12
77192;BME280;66172;48.526;8.078;2023-11-21T04:57:05;99106.97;;;8.88;96.31
77192;BME280;66172;48.526;8.078;2023-11-21T04:59:34;99112.34;;;8.76;95.98
77192;BME280;66172;48.526;8.078;2023-11-21T05:02:00;99109.75;;;8.80;97.04
77192;BME280;66172;48.526;8.078;2023-11-21T05:04:26;99105.25;;;8.84;97.90
77192;BME280;66172;48.526;8.078;2023-11-21T05:06:52;99107.72;;;8.77;97.67
77192;BME280;66172;48.526;8.078;2023-11-21T05:09:18;99110.91;;;8.91;99.67
77192;BME280;66172;48.526;8.078;2023-11-21T05:11:44;99115.09;;;8.88;100.00
77192;BME280;66172;48.526;8.078;2023-11-21T05:14:10;99114.53;;;8.95;100.00
77192;BME280;66172;48.526;8.078;2023-11-21T05:16:36;99115.00;;;8.97;100.00
77192;BME280;66172;48.526;8.078;2023-11-21T05:19:02;99123.34;;;8.92;100.00
77192;BME280;66172;48.526;8.078;2023-11-21T05:21:29;99127.19;;;8.91;100.00
77192;BME280;66172;48.526;8.078;2023-11-21T05:23:57;99127.66;;;8.93;100.00
77192;BME280;66172;48.526;8.078;2023-11-21T05:26:23;99128.44;;;8.93;100.00
77192;BME280;66172;48.526;8.078;2023-11-21T05:28:49;99126.84;;;8.92;98.86
77192;BME280;66172;48.526;8.078;2023-11-21T05:31:15;99130.13;;;8.98;98.03
77192;BME280;66172;48.526;8.078;2023-11-21T05:33:41;99137.91;;;8.87;97.28
77192;BME280;66172;48.526;8.078;2023-11-21T05:36:07;99138.69;;;8.88;97.61
77192;BME280;66172;48.526;8.078;2023-11-21T05:38:35;99140.97;;;8.86;97.92
77192;BME280;66172;48.526;8.078;2023-11-21T05:41:01;99133.81;;;8.81;97.16
77192;BME280;66172;48.526;8.078;2023-11-21T05:43:27;99140.06;;;8.94;97.77
77192;BME280;66172;48.526;8.078;2023-11-21T05:45:55;99143.13;;;8.92;98.13
77192;BME280;66172;48.526;8.078;2023-11-21T05:48:21;99147.31;;;8.90;96.34
77192;BME280;66172;48.526;8.078;2023-11-21T05:50:47;99152.38;;;8.91;97.81
77192;BME280;66172;48.526;8.078;2023-11-21T05:53:15;99150.34;;;8.88;99.50
77192;BME280;66172;48.526;8.078;2023-11-21T05:55:42;99150.78;;;8.90;99.27
77192;BME280;66172;48.526;8.078;2023-11-21T05:58:08;99162.44;;;8.91;99.30
77192;BME280;66172;48.526;8.078;2023-11-21T06:00:34;99157.22;;;8.86;98.29
77192;BME280;66172;48.526;8.078;2023-11-21T06:03:00;99159.53;;;8.96;97.87
77192;BME280;66172;48.526;8.078;2023-11-21T06:05:26;99160.63;;;8.95;96.15
77192;BME280;66172;48.526;8.078;2023-11-21T06:07:53;99164.28;;;8.99;94.83
77192;BME280;66172;48.526;8.078;2023-11-21T06:10:21;99166.72;;;8.92;95.75
77192;BME280;66172;48.526;8.078;2023-11-21T06:12:49;99172.22;;;8.83;96.79
77192;BME280;66172;48.526;8.078;2023-11-21T06:15:15;99167.56;;;8.72;98.85
77192;BME280;66172;48.526;8.078;2023-11-21T06:17:42;99177.88;;;8.78;98.77
77192;BME280;66172;48.526;8.078;2023-11-21T06:20:09;99178.91;;;8.86;99.17
77192;BME280;66172;48.526;8.078;2023-11-21T06:22:43;99187.63;;;8.91;99.50
77192;BME280;66172;48.526;8.078;2023-11-21T06:25:10;99179.59;;;8.83;100.00
77192;BME280;66172;48.526;8.078;2023-11-21T06:27:41;99181.75;;;8.89;100.00
77192;BME280;66172;48.526;8.078;2023-11-21T06:30:08;99188.56;;;8.95;100.00
77192;BME280;66172;48.526;8.078;2023-11-21T06:32:36;99183.66;;;8.89;100.00
77192;BME280;66172;48.526;8.078;2023-11-21T06:35:02;99193.78;;;8.80;100.00
77192;BME280;66172;48.526;8.078;2023-11-21T06:37:30;99199.47;;;8.87;100.00
77192;BME280;66172;48.526;8.078;2023-11-21T06:39:56;99202.97;;;8.87;100.00
77192;BME280;66172;48.526;8.078;2023-11-21T06:42:24;99203.78;;;8.88;100.00
77192;BME280;66172;48.526;8.078;2023-11-21T06:44:50;99196.56;;;8.92;100.00
77192;BME280;66172;48.526;8.078;2023-11-21T06:47:20;99195.31;;;8.89;100.00
77192;BME280;66172;48.526;8.078;2023-11-21T06:49:46;99198.16;;;8.93;100.00
77192;BME280;66172;48.526;8.078;2023-11-21T06:52:15;99198.47;;;8.91;100.00
77192;BME280;66172;48.526;8.078;2023-11-21T06:54:41;99201.97;;;8.92;100.00
77192;BME280;66172;48.526;8.078;2023-11-21T06:57:07;99210.53;;;8.82;100.00
77192;BME280;66172;48.526;8.078;2023-11-21T06:59:33;99208.41;;;8.67;100.00
77192;BME280;66172;48.526;8.078;2023-11-21T07:01:59;99215.31;;;8.64;100.00
77192;BME280;66172;48.526;8.078;2023-11-21T07:04:25;99220.09;;;8.59;100.00
77192;BME280;66172;48.526;8.078;2023-11-21T07:06:53;99214.91;;;8.53;100.00
77192;BME280;66172;48.526;8.078;2023-11-21T07:09:20;99224.34;;;8.47;100.00
77192;BME280;66172;48.526;8.078;2023-11-21T07:11:52;99225.78;;;8.66;100.00
77192;BME280;66172;48.526;8.078;2023-11-21T07:14:18;99226.00;;;8.61;100.00
77192;BME280;66172;48.526;8.078;2023-11-21T07:16:45;99230.63;;;8.60;100.00
77192;BME280;66172;48.526;8.078;2023-11-21T07:19:12;99232.50;;;8.68;100.00
77192;BME280;66172;48.526;8.078;2023-11-21T07:21:39;99241.34;;;8.57;100.00
77192;BME280;66172;48.526;8.078;2023-11-21T07:24:06;99237.25;;;8.50;100.00
77192;BME280;66172;48.526;8.078;2023-11-21T07:26:34;99241.47;;;8.60;100.00
77192;BME280;66172;48.526;8.078;2023-11-21T07:29:01;99241.47;;;8.60;100.00
77192;BME280;66172;48.526;8.078;2023-11-21T07:31:28;99249.16;;;8.58;100.00
77192;BME280;66172;48.526;8.078;2023-11-21T07:33:55;99251.66;;;8.63;100.00
77192;BME280;66172;48.526;8.078;2023-11-21T07:36:23;99245.56;;;8.66;100.00
77192;BME280;66172;48.526;8.078;2023-11-21T07:38:49;99255.25;;;8.76;100.00
77192;BME280;66172;48.526;8.078;2023-11-21T07:41:16;99255.56;;;8.74;100.00
77192;BME280;66172;48.526;8.078;2023-11-21T07:43:44;99261.69;;;8.83;100.00
77192;BME280;66172;48.526;8.078;2023-11-21T07:46:10;99263.97;;;8.81;100.00
77192;BME280;66172;48.526;8.078;2023-11-21T07:48:38;99263.09;;;8.89;100.00
77192;BME280;66172;48.526;8.078;2023-11-21T07:51:05;99262.44;;;8.92;100.00
77192;BME280;66172;48.526;8.078;2023-11-21T07:53:32;99260.66;;;8.96;100.00
77192;BME280;66172;48.526;8.078;2023-11-21T07:56:02;99270.84;;;8.99;100.00
77192;BME280;66172;48.526;8.078;2023-11-21T07:58:28;99272.88;;;9.02;100.00
77192;BME280;66172;48.526;8.078;2023-11-21T08:00:54;99275.28;;;9.04;100.00
77192;BME280;66172;48.526;8.078;2023-11-21T08:03:20;99275.03;;;9.09;100.00
77192;BME280;66172;48.526;8.078;2023-11-21T08:05:47;99279.00;;;9.12;100.00
77192;BME280;66172;48.526;8.078;2023-11-21T08:08:12;99277.63;;;9.06;100.00
77192;BME280;66172;48.526;8.078;2023-11-21T08:10:38;99280.16;;;9.11;100.00
77192;BME280;66172;48.526;8.078;2023-11-21T08:13:05;99272.16;;;9.14;100.00
77192;BME280;66172;48.526;8.078;2023-11-21T08:15:32;99285.47;;;9.19;100.00
77192;BME280;66172;48.526;8.078;2023-11-21T08:17:58;99277.34;;;9.19;100.00
77192;BME280;66172;48.526;8.078;2023-11-21T08:20:26;99287.75;;;9.17;99.55
77192;BME280;66172;48.526;8.078;2023-11-21T08:22:53;99286.19;;;8.95;97.29
77192;BME280;66172;48.526;8.078;2023-11-21T08:25:22;99291.53;;;9.04;97.88
77192;BME280;66172;48.526;8.078;2023-11-21T08:27:48;99287.09;;;8.99;97.79
77192;BME280;66172;48.526;8.078;2023-11-21T08:30:14;99289.47;;;9.01;98.38
77192;BME280;66172;48.526;8.078;2023-11-21T08:32:42;99294.38;;;9.08;98.29
77192;BME280;66172;48.526;8.078;2023-11-21T08:35:08;99289.28;;;9.06;98.47
77192;BME280;66172;48.526;8.078;2023-11-21T08:37:35;99297.88;;;9.08;98.85
77192;BME280;66172;48.526;8.078;2023-11-21T08:40:05;99305.09;;;9.04;98.96
77192;BME280;66172;48.526;8.078;2023-11-21T08:42:35;99298.06;;;9.03;99.80
77192;BME280;66172;48.526;8.078;2023-11-21T08:45:01;99302.56;;;8.99;99.22
77192;BME280;66172;48.526;8.078;2023-11-21T08:47:27;99299.50;;;8.59;100.00
77192;BME280;66172;48.526;8.078;2023-11-21T08:49:53;99304.59;;;8.61;100.00
77192;BME280;66172;48.526;8.078;2023-11-21T08:52:19;99298.34;;;8.69;100.00
77192;BME280;66172;48.526;8.078;2023-11-21T08:54:51;99297.03;;;8.75;100.00
77192;BME280;66172;48.526;8.078;2023-11-21T08:57:25;99303.50;;;8.82;100.00
77192;BME280;66172;48.526;8.078;2023-11-21T08:59:51;99310.31;;;8.88;100.00
77192;BME280;66172;48.526;8.078;2023-11-21T09:02:21;99308.97;;;8.94;100.00
77192;BME280;66172;48.526;8.078;2023-11-21T09:04:49;99312.66;;;8.69;100.00
77192;BME280;66172;48.526;8.078;2023-11-21T09:07:16;99309.19;;;8.69;99.95
77192;BME280;66172;48.526;8.078;2023-11-21T09:09:42;99314.53;;;8.77;100.00
77192;BME280;66172;48.526;8.078;2023-11-21T09:12:08;99316.41;;;8.85;100.00
77192;BME280;66172;48.526;8.078;2023-11-21T09:14:38;99319.56;;;8.87;100.00
77192;BME280;66172;48.526;8.078;2023-11-21T09:17:05;99324.00;;;8.92;100.00
77192;BME280;66172;48.526;8.078;2023-11-21T09:19:39;99325.78;;;8.88;100.00
77192;BME280;66172;48.526;8.078;2023-11-21T09:22:06;99333.47;;;8.86;100.00
77192;BME280;66172;48.526;8.078;2023-11-21T09:24:35;99331.28;;;8.79;99.69
77192;BME280;66172;48.526;8.078;2023-11-21T09:27:01;99334.59;;;8.85;100.00
77192;BME280;66172;48.526;8.078;2023-11-21T09:29:27;99334.06;;;8.91;100.00
77192;BME280;66172;48.526;8.078;2023-11-21T09:31:53;99334.00;;;9.00;100.00
77192;BME280;66172;48.526;8.078;2023-11-21T09:34:23;99328.72;;;9.03;100.00
77192;BME280;66172;48.526;8.078;2023-11-21T09:36:49;99335.38;;;9.06;100.00
77192;BME280;66172;48.526;8.078;2023-11-21T09:39:15;99332.34;;;9.08;100.00
77192;BME280;66172;48.526;8.078;2023-11-21T09:42:08;99342.66;;;9.14;100.00
77192;BME280;66172;48.526;8.078;2023-11-21T09:44:50;99346.31;;;9.18;100.00
77192;BME280;66172;48.526;8.078;2023-11-21T09:47:21;99345.50;;;9.18;100.00
77192;BME280;66172;48.526;8.078;2023-11-21T09:49:48;99344.19;;;9.24;100.00
77192;BME280;66172;48.526;8.078;2023-11-21T09:52:26;99347.34;;;9.26;100.00
77192;BME280;66172;48.526;8.078;2023-11-21T09:54:53;99353.81;;;9.33;100.00
77192;BME280;66172;48.526;8.078;2023-11-21T09:57:23;99355.75;;;9.33;100.00
77192;BME280;66172;48.526;8.078;2023-11-21T09:59:51;99355.88;;;9.36;100.00
77192;BME280;66172;48.526;8.078;2023-11-21T10:02:25;99362.22;;;9.40;100.00
77192;BME280;66172;48.526;8.078;2023-11-21T10:04:52;99359.31;;;9.45;100.00
77192;BME280;66172;48.526;8.078;2023-11-21T10:07:19;99350.50;;;9.48;100.00
77192;BME280;66172;48.526;8.078;2023-11-21T10:09:47;99354.94;;;9.53;100.00
77192;BME280;66172;48.526;8.078;2023-11-21T10:12:15;99353.13;;;9.57;100.00
77192;BME280;66172;48.526;8.078;2023-11-21T10:14:42;99361.28;;;9.57;100.00
77192;BME280;66172;48.526;8.078;2023-11-21T10:17:10;99365.72;;;9.62;100.00
77192;BME280;66172;48.526;8.078;2023-11-21T10:19:39;99364.25;;;9.64;100.00
77192;BME280;66172;48.526;8.078;2023-11-21T10:22:05;99371.41;;;9.69;100.00
77192;BME280;66172;48.526;8.078;2023-11-21T10:24:33;99363.34;;;9.60;99.70
77192;BME280;66172;48.526;8.078;2023-11-21T10:26:59;99369.22;;;9.62;100.00
77192;BME280;66172;48.526;8.078;2023-11-21T10:29:29;99374.84;;;9.57;99.59
77192;BME280;66172;48.526;8.078;2023-11-21T10:31:55;99368.44;;;9.62;99.99
77192;BME280;66172;48.526;8.078;2023-11-21T10:34:24;99365.59;;;9.58;99.88
77192;BME280;66172;48.526;8.078;2023-11-21T10:36:50;99375.22;;;9.68;99.35
77192;BME280;66172;48.526;8.078;2023-11-21T10:39:17;99364.84;;;9.70;99.59
77192;BME280;66172;48.526;8.078;2023-11-21T10:41:45;99371.28;;;9.65;99.41
77192;BME280;66172;48.526;8.078;2023-11-21T10:44:15;99365.66;;;9.70;99.37
77192;BME280;66172;48.526;8.078;2023-11-21T10:46:51;99370.72;;;9.72;100.00
77192;BME280;66172;48.526;8.078;2023-11-21T10:49:18;99376.38;;;9.67;99.73
77192;BME280;66172;48.526;8.078;2023-11-21T10:51:44;99374.34;;;9.64;99.62
77192;BME280;66172;48.526;8.078;2023-11-21T10:54:10;99374.34;;;9.64;99.59
77192;BME280;66172;48.526;8.078;2023-11-21T10:56:39;99385.31;;;9.67;100.00
77192;BME280;66172;48.526;8.078;2023-11-21T10:59:10;99381.59;;;9.72;99.50
77192;BME280;66172;48.526;8.078;2023-11-21T11:01:45;99375.16;;;9.76;99.20
77192;BME280;66172;48.526;8.078;2023-11-21T11:04:14;99379.00;;;9.75;99.05
77192;BME280;66172;48.526;8.078;2023-11-21T11:06:56;99375.28;;;9.80;99.60
77192;BME280;66172;48.526;8.078;2023-11-21T11:09:23;99378.69;;;9.77;100.00
77192;BME280;66172;48.526;8.078;2023-11-21T11:11:51;99385.56;;;9.74;99.80
77192;BME280;66172;48.526;8.078;2023-11-21T11:14:18;99382.06;;;9.74;100.00
77192;BME280;66172;48.526;8.078;2023-11-21T11:16:45;99382.50;;;9.76;100.00
77192;BME280;66172;48.526;8.078;2023-11-21T11:19:11;99396.75;;;9.73;100.00
77192;BME280;66172;48.526;8.078;2023-11-21T11:21:53;99394.28;;;9.80;100.00
77192;BME280;66172;48.526;8.078;2023-11-21T11:24:41;99391.91;;;9.78;100.00
77192;BME280;66172;48.526;8.078;2023-11-21T11:32:51;99399.88;;;9.63;100.00
77192;BME280;66172;48.526;8.078;2023-11-21T11:35:29;99396.19;;;9.67;100.00
77192;BME280;66172;48.526;8.078;2023-11-21T11:37:59;99387.13;;;9.75;100.00
77192;BME280;66172;48.526;8.078;2023-11-21T11:40:48;99393.06;;;9.89;98.34
77192;BME280;66172;48.526;8.078;2023-11-21T11:43:25;99388.13;;;9.91;98.32
77192;BME280;66172;48.526;8.078;2023-11-21T11:45:51;99388.38;;;9.98;98.68
77192;BME280;66172;48.526;8.078;2023-11-21T11:48:21;99387.59;;;10.10;99.22
77192;BME280;66172;48.526;8.078;2023-11-21T11:51:10;99382.53;;;10.21;99.00
77192;BME280;66172;48.526;8.078;2023-11-21T11:53:39;99387.69;;;10.34;98.41
77192;BME280;66172;48.526;8.078;2023-11-21T11:56:28;99389.81;;;10.29;97.57
77192;BME280;66172;48.526;8.078;2023-11-21T11:58:58;99387.44;;;10.27;97.76
77192;BME280;66172;48.526;8.078;2023-11-21T12:01:26;99383.94;;;10.39;97.61
77192;BME280;66172;48.526;8.078;2023-11-21T12:06:43;99387.09;;;10.29;96.50
77192;BME280;66172;48.526;8.078;2023-11-21T12:09:18;99392.56;;;10.41;96.94
77192;BME280;66172;48.526;8.078;2023-11-21T12:11:45;99390.16;;;10.39;95.69
77192;BME280;66172;48.526;8.078;2023-11-21T12:14:13;99394.25;;;10.45;95.33
77192;BME280;66172;48.526;8.078;2023-11-21T12:16:39;99387.22;;;10.57;95.79
77192;BME280;66172;48.526;8.078;2023-11-21T12:19:05;99386.09;;;10.70;94.66
77192;BME280;66172;48.526;8.078;2023-11-21T12:21:31;99386.88;;;10.70;95.17
77192;BME280;66172;48.526;8.078;2023-11-21T12:23:58;99392.44;;;10.74;94.23
77192;BME280;66172;48.526;8.078;2023-11-21T12:26:24;99402.31;;;10.78;94.37
77192;BME280;66172;48.526;8.078;2023-11-21T12:28:53;99409.78;;;10.81;94.15
77192;BME280;66172;48.526;8.078;2023-11-21T12:31:22;99395.16;;;10.86;94.58
77192;BME280;66172;48.526;8.078;2023-11-21T12:33:48;99395.06;;;10.82;94.31
77192;BME280;66172;48.526;8.078;2023-11-21T12:36:14;99392.69;;;10.69;93.59
77192;BME280;66172;48.526;8.078;2023-11-21T12:38:40;99399.00;;;10.48;94.27
77192;BME280;66172;48.526;8.078;2023-11-21T12:41:09;99395.03;;;10.46;94.45
77192;BME280;66172;48.526;8.078;2023-11-21T12:43:36;99401.84;;;10.40;95.11
77192;BME280;66172;48.526;8.078;2023-11-21T12:46:08;99407.25;;;10.40;95.89
77192;BME280;66172;48.526;8.078;2023-11-21T12:48:38;99402.50;;;10.49;95.81
77192;BME280;66172;48.526;8.078;2023-11-21T12:51:06;99398.56;;;10.46;95.33
77192;BME280;66172;48.526;8.078;2023-11-21T12:53:32;99403.88;;;10.43;95.48
77192;BME280;66172;48.526;8.078;2023-11-21T12:56:10;99406.25;;;10.44;95.70
77192;BME280;66172;48.526;8.078;2023-11-21T12:58:37;99399.78;;;10.37;95.00
77192;BME280;66172;48.526;8.078;2023-11-21T13:01:07;99409.19;;;10.39;95.98
77192;BME280;66172;48.526;8.078;2023-11-21T13:03:47;99410.06;;;10.31;94.86
77192;BME280;66172;48.526;8.078;2023-11-21T13:06:17;99402.84;;;10.35;96.28
77192;BME280;66172;48.526;8.078;2023-11-21T13:08:45;99401.47;;;10.41;96.30
77192;BME280;66172;48.526;8.078;2023-11-21T13:11:11;99404.31;;;10.33;96.32
77192;BME280;66172;48.526;8.078;2023-11-21T13:13:41;99406.59;;;10.43;97.33